createdAt,value
2023-05-15T00:01:47.149Z,92.97
2023-05-15T00:04:15.253Z,96.48
2023-05-15T00:06:45.744Z,98.19
2023-05-15T00:09:13.897Z,99.18
2023-05-15T00:11:44.660Z,99.64
2023-05-15T00:14:13.149Z,99.16
2023-05-15T00:16:41.859Z,98.95
2023-05-15T00:19:10.129Z,98.67
2023-05-15T00:21:38.512Z,99.04
2023-05-15T00:24:06.938Z,99.26
2023-05-15T00:26:35.408Z,99.86
2023-05-15T00:29:03.970Z,99.94
2023-05-15T00:31:33.925Z,100.00
2023-05-15T00:34:01.982Z,99.87
2023-05-15T00:36:30.548Z,97.96
2023-05-15T00:39:00.747Z,96.69
2023-05-15T00:41:34.958Z,94.51
2023-05-15T00:44:03.819Z,92.76
2023-05-15T00:46:33.608Z,92.12
2023-05-15T00:49:04.016Z,93.60
2023-05-15T00:51:32.760Z,95.40
2023-05-15T00:54:01.098Z,96.72
2023-05-15T00:56:31.028Z,97.07
2023-05-15T00:59:00.379Z,96.93
2023-05-15T01:01:33.722Z,96.58
2023-05-15T01:04:07.091Z,97.43
2023-05-15T01:06:35.963Z,97.49
2023-05-15T01:09:12.253Z,96.56
2023-05-15T01:11:42.860Z,96.44
2023-05-15T01:14:11.277Z,96.33
2023-05-15T01:16:39.680Z,97.07
2023-05-15T01:19:08.126Z,97.00
2023-05-15T01:21:43.310Z,95.74
2023-05-15T01:24:20.411Z,95.27
2023-05-15T01:27:10.218Z,96.23
2023-05-15T01:29:50.922Z,96.93
2023-05-15T01:32:25.859Z,97.40
2023-05-15T01:35:17.366Z,97.28
2023-05-15T01:37:50.231Z,97.05
2023-05-15T01:40:20.202Z,96.57
2023-05-15T01:42:54.708Z,96.86
2023-05-15T01:45:25.381Z,97.58
2023-05-15T01:47:55.028Z,97.50
2023-05-15T01:50:23.588Z,98.46
2023-05-15T01:52:55.071Z,99.05
2023-05-15T01:55:24.550Z,100.00
2023-05-15T01:57:53.057Z,100.00
2023-05-15T02:00:22.903Z,100.00
2023-05-15T02:02:51.386Z,100.00
2023-05-15T02:05:19.848Z,99.17
2023-05-15T02:07:48.569Z,98.25
2023-05-15T02:10:18.623Z,97.72
2023-05-15T02:12:47.259Z,96.34
2023-05-15T02:15:17.668Z,94.40
2023-05-15T02:17:47.097Z,93.96
2023-05-15T02:20:15.589Z,94.60
2023-05-15T02:22:44.385Z,89.91
2023-05-15T02:25:12.660Z,80.22
2023-05-15T02:27:58.374Z,68.94
2023-05-15T02:30:39.286Z,60.28
2023-05-15T02:33:25.943Z,55.07
2023-05-15T02:36:07.897Z,51.06
2023-05-15T02:38:47.785Z,46.37
2023-05-15T02:41:17.118Z,45.40
2023-05-15T02:43:46.466Z,44.10
2023-05-15T02:46:15.841Z,42.41
2023-05-15T02:48:44.517Z,39.46
2023-05-15T02:51:12.829Z,37.25
2023-05-15T02:53:42.324Z,35.14
2023-05-15T02:56:10.635Z,34.03
2023-05-15T02:58:39.774Z,32.51
2023-05-15T03:01:07.962Z,31.57
2023-05-15T03:03:37.018Z,31.37
2023-05-15T03:06:05.171Z,31.70
2023-05-15T03:08:33.404Z,31.14
2023-05-15T03:11:01.592Z,29.23
2023-05-15T03:13:29.667Z,28.64
2023-05-15T03:15:57.676Z,27.72
2023-05-15T03:18:26.001Z,26.28
2023-05-15T03:20:54.201Z,26.39
2023-05-15T03:23:22.356Z,25.67
2023-05-15T03:25:51.219Z,25.10
2023-05-15T03:28:19.541Z,24.73
2023-05-15T03:30:47.661Z,24.08
2023-05-15T03:33:16.445Z,23.93
2023-05-15T03:35:45.098Z,23.64
2023-05-15T03:38:13.293Z,23.09
2023-05-15T03:40:41.717Z,22.27
2023-05-15T03:43:11.669Z,21.93
2023-05-15T03:45:40.207Z,21.89
2023-05-15T03:48:08.588Z,21.60
2023-05-15T03:50:37.276Z,21.08
2023-05-15T03:53:05.501Z,21.23
2023-05-15T03:55:33.713Z,20.83
2023-05-15T03:58:02.293Z,19.63
2023-05-15T04:00:30.315Z,19.33
2023-05-15T04:02:58.788Z,20.19
2023-05-15T04:05:26.926Z,19.44
2023-05-15T04:07:55.334Z,18.97
2023-05-15T04:10:23.428Z,19.21
2023-05-15T04:12:52.338Z,19.33
2023-05-15T04:15:24.966Z,20.00
2023-05-15T04:17:57.349Z,20.49
2023-05-15T04:20:27.098Z,20.93
2023-05-15T04:22:55.192Z,20.14
2023-05-15T04:25:24.808Z,19.72
2023-05-15T04:27:53.682Z,19.19
2023-05-15T04:30:22.165Z,19.86
2023-05-15T04:32:52.185Z,20.05
2023-05-15T04:35:21.417Z,19.31
2023-05-15T04:37:49.871Z,20.63
2023-05-15T04:40:18.374Z,21.66
2023-05-15T04:42:46.656Z,22.50
2023-05-15T04:45:15.234Z,23.11
2023-05-15T04:47:43.428Z,23.74
2023-05-15T04:50:11.996Z,23.51
2023-05-15T04:52:40.495Z,22.25
2023-05-15T04:55:09.876Z,21.48
2023-05-15T04:57:38.234Z,21.50
2023-05-15T05:00:12.838Z,20.98
2023-05-15T05:02:43.411Z,20.78
2023-05-15T05:05:11.853Z,21.28
2023-05-15T05:07:40.521Z,21.26
2023-05-15T05:10:09.659Z,21.54
2023-05-15T05:12:38.958Z,20.59
2023-05-15T05:15:08.175Z,19.87
2023-05-15T05:17:36.354Z,19.97
2023-05-15T05:20:05.254Z,19.81
2023-05-15T05:22:34.255Z,19.93
2023-05-15T05:25:03.915Z,18.70
2023-05-15T05:27:33.185Z,18.39
2023-05-15T05:30:01.476Z,18.03
2023-05-15T05:32:30.697Z,17.95
2023-05-15T05:34:58.876Z,17.46
2023-05-15T05:37:27.393Z,17.41
2023-05-15T05:39:55.547Z,18.42
2023-05-15T05:42:23.747Z,17.38
2023-05-15T05:44:51.726Z,17.51
2023-05-15T05:47:45.217Z,16.90
2023-05-15T05:50:13.274Z,17.64
2023-05-15T05:52:42.260Z,18.52
2023-05-15T05:55:10.862Z,18.73
2023-05-15T05:57:39.474Z,17.78
2023-05-15T06:00:12.623Z,17.68
2023-05-15T06:02:41.182Z,16.62
2023-05-15T06:05:09.626Z,16.48
2023-05-15T06:07:37.726Z,16.58
2023-05-15T06:10:10.014Z,16.83
2023-05-15T06:12:38.379Z,17.27
2023-05-15T06:15:08.083Z,18.15
2023-05-15T06:17:36.876Z,18.20
2023-05-15T06:20:12.389Z,17.98
2023-05-15T06:22:42.487Z,17.86
2023-05-15T06:25:15.078Z,17.47
2023-05-15T06:27:43.941Z,16.95
2023-05-15T06:30:12.713Z,16.47
2023-05-15T06:32:42.273Z,16.13
2023-05-15T06:35:10.945Z,16.26
2023-05-15T06:37:39.820Z,15.96
2023-05-15T06:40:09.166Z,15.96
2023-05-15T06:42:37.422Z,16.53
2023-05-15T06:45:06.192Z,16.13
2023-05-15T06:47:34.514Z,15.76
2023-05-15T06:50:02.738Z,15.93
2023-05-15T06:52:31.712Z,15.35
2023-05-15T06:55:00.106Z,15.01
2023-05-15T06:57:28.292Z,15.91
2023-05-15T06:59:56.868Z,16.75
2023-05-15T07:02:25.909Z,17.90
2023-05-15T07:05:15.316Z,19.97
2023-05-15T07:07:43.840Z,21.92
2023-05-15T07:10:12.014Z,24.25
2023-05-15T07:12:41.056Z,25.24
2023-05-15T07:15:09.856Z,26.33
2023-05-15T07:17:38.284Z,26.60
2023-05-15T07:20:07.132Z,27.87
2023-05-15T07:22:44.619Z,27.73
2023-05-15T07:25:17.179Z,28.56
2023-05-15T07:27:46.033Z,28.80
2023-05-15T07:30:14.543Z,28.11
2023-05-15T07:32:52.702Z,28.78
2023-05-15T07:35:27.121Z,27.80
2023-05-15T07:37:55.794Z,27.24
2023-05-15T07:40:24.224Z,27.50
2023-05-15T07:42:52.456Z,28.52
2023-05-15T07:45:21.278Z,27.47
2023-05-15T07:47:50.192Z,27.75
2023-05-15T07:50:18.806Z,27.03
2023-05-15T07:52:46.990Z,27.06
2023-05-15T07:55:15.259Z,27.71
2023-05-15T07:57:43.725Z,27.09
2023-05-15T08:00:12.491Z,27.31
2023-05-15T08:02:41.276Z,27.57
2023-05-15T08:05:09.680Z,27.28
2023-05-15T08:07:38.076Z,27.13
2023-05-15T08:10:07.908Z,26.55
2023-05-15T08:12:36.411Z,26.30
2023-05-15T08:15:05.425Z,26.43
2023-05-15T08:17:34.058Z,25.84
2023-05-15T08:20:02.119Z,26.69
2023-05-15T08:22:33.570Z,26.26
2023-05-15T08:25:04.180Z,26.07
2023-05-15T08:27:33.534Z,25.71
2023-05-15T08:30:01.809Z,25.61
2023-05-15T08:32:30.576Z,25.58
2023-05-15T08:34:58.761Z,25.76
2023-05-15T08:37:26.813Z,25.78
2023-05-15T08:39:54.894Z,25.52
2023-05-15T08:42:30.729Z,24.58
2023-05-15T08:45:00.305Z,23.89
2023-05-15T08:47:32.770Z,23.37
2023-05-15T08:50:07.125Z,22.90
2023-05-15T08:52:35.631Z,23.26
2023-05-15T08:55:04.509Z,22.46
2023-05-15T08:57:34.128Z,21.98
2023-05-15T09:00:06.094Z,22.10
2023-05-15T09:02:37.836Z,22.00
2023-05-15T09:05:06.705Z,22.13
2023-05-15T09:07:36.015Z,22.48
2023-05-15T09:10:04.750Z,22.05
2023-05-15T09:12:35.112Z,21.75
2023-05-15T09:15:13.486Z,21.31
2023-05-15T09:17:43.658Z,21.03
2023-05-15T09:20:30.794Z,21.21
2023-05-15T09:23:00.921Z,20.89
2023-05-15T09:25:41.902Z,20.80
2023-05-15T09:28:26.782Z,20.62
2023-05-15T09:31:00.480Z,20.09
2023-05-15T09:33:34.236Z,19.55
2023-05-15T09:36:06.994Z,19.62
2023-05-15T09:38:43.432Z,19.50
2023-05-15T09:41:12.141Z,18.96
2023-05-15T09:43:43.420Z,18.93
2023-05-15T09:46:13.520Z,18.23
2023-05-15T09:48:41.710Z,18.09
2023-05-15T09:51:19.961Z,18.47
2023-05-15T09:53:53.205Z,17.58
2023-05-15T09:56:22.809Z,17.46
2023-05-15T09:58:58.967Z,16.83
2023-05-15T10:01:28.035Z,17.10
2023-05-15T10:04:03.842Z,17.34
2023-05-15T10:06:42.023Z,16.50
2023-05-15T10:09:11.860Z,16.95
2023-05-15T10:11:44.376Z,17.35
2023-05-15T10:14:14.411Z,17.33
2023-05-15T10:16:42.821Z,17.06
2023-05-15T10:19:12.244Z,17.33
2023-05-15T10:21:42.160Z,17.88
2023-05-15T10:24:11.690Z,18.02
2023-05-15T10:26:41.474Z,19.07
2023-05-15T10:29:14.050Z,19.60
2023-05-15T10:31:42.784Z,20.13
2023-05-15T10:34:12.529Z,19.98
2023-05-15T10:36:43.315Z,20.05
2023-05-15T10:39:12.300Z,19.85
2023-05-15T10:41:41.119Z,20.32
2023-05-15T10:44:10.509Z,20.14
2023-05-15T10:46:39.273Z,20.61
2023-05-15T10:49:07.797Z,20.35
2023-05-15T10:51:38.158Z,20.35
2023-05-15T10:54:06.736Z,20.07
2023-05-15T10:56:39.020Z,20.11
2023-05-15T10:59:09.562Z,19.49
2023-05-15T11:01:39.722Z,19.41
2023-05-15T11:04:15.859Z,19.78
2023-05-15T11:06:46.204Z,20.00
2023-05-15T11:09:27.241Z,20.07
2023-05-15T11:11:58.154Z,19.92
2023-05-15T11:14:35.570Z,19.60
2023-05-15T11:17:08.721Z,19.83
2023-05-15T11:19:56.175Z,20.02
2023-05-15T11:22:37.060Z,20.04
2023-05-15T11:25:09.487Z,20.33
2023-05-15T11:27:38.253Z,22.45
2023-05-15T11:30:18.459Z,23.49
2023-05-15T11:32:55.760Z,24.01
2023-05-15T11:35:42.692Z,24.35
2023-05-15T11:38:10.961Z,24.48
2023-05-15T11:40:53.076Z,24.74
2023-05-15T11:43:26.245Z,25.02
2023-05-15T11:46:11.341Z,24.67
2023-05-15T11:48:48.212Z,24.76
2023-05-15T11:51:26.247Z,24.55
2023-05-15T11:53:56.098Z,24.80
2023-05-15T11:56:26.254Z,24.54
2023-05-15T11:58:59.343Z,24.47
2023-05-15T12:01:28.638Z,24.23
2023-05-15T12:03:56.976Z,23.75
2023-05-15T12:06:25.479Z,23.84
2023-05-15T12:08:54.461Z,23.21
2023-05-15T12:11:25.921Z,23.22
2023-05-15T12:13:55.207Z,23.35
2023-05-15T12:16:27.469Z,23.35
2023-05-15T12:18:57.888Z,23.55
2023-05-15T12:21:29.589Z,23.31
2023-05-15T12:24:07.531Z,23.14
2023-05-15T12:26:37.816Z,22.72
2023-05-15T12:29:06.329Z,22.85
2023-05-15T12:31:35.358Z,22.95
2023-05-15T12:34:03.743Z,22.74
2023-05-15T12:36:32.174Z,22.81
2023-05-15T12:39:06.840Z,22.72
2023-05-15T12:41:38.932Z,22.41
2023-05-15T12:44:07.684Z,23.03
2023-05-15T12:46:36.542Z,22.84
2023-05-15T12:49:04.915Z,22.15
2023-05-15T12:51:33.439Z,22.46
2023-05-15T12:54:01.690Z,22.29
2023-05-15T12:56:30.931Z,22.51
2023-05-15T12:58:59.116Z,22.60
2023-05-15T13:01:29.819Z,22.56
2023-05-15T13:03:59.422Z,22.22
2023-05-15T13:06:41.985Z,22.31
2023-05-15T13:09:14.517Z,22.22
2023-05-15T13:11:45.750Z,22.52
2023-05-15T13:14:17.914Z,22.12
2023-05-15T13:16:47.816Z,22.01
2023-05-15T13:19:17.482Z,22.23
2023-05-15T13:21:46.407Z,22.54
2023-05-15T13:24:15.445Z,21.18
2023-05-15T13:26:43.865Z,20.72
2023-05-15T13:29:12.006Z,20.92
2023-05-15T13:31:53.284Z,21.59
2023-05-15T13:34:21.679Z,21.04
2023-05-15T13:36:49.977Z,21.08
2023-05-15T13:39:18.148Z,21.23
2023-05-15T13:41:46.761Z,21.86
2023-05-15T13:44:15.530Z,22.38
2023-05-15T13:46:44.388Z,21.91
2023-05-15T13:49:12.771Z,22.38
2023-05-15T13:51:43.565Z,22.17
2023-05-15T13:54:12.322Z,21.56
2023-05-15T13:56:41.384Z,21.49
2023-05-15T13:59:10.085Z,20.80
2023-05-15T14:01:48.211Z,20.82
2023-05-15T14:04:17.116Z,20.88
2023-05-15T14:06:45.225Z,20.79
2023-05-15T14:09:13.440Z,21.10
2023-05-15T14:11:41.608Z,21.15
2023-05-15T14:14:10.025Z,21.52
2023-05-15T14:16:38.215Z,21.75
2023-05-15T14:19:07.082Z,21.74
2023-05-15T14:21:35.445Z,21.42
2023-05-15T14:24:05.149Z,21.73
2023-05-15T14:26:45.975Z,21.31
2023-05-15T14:29:14.684Z,21.83
2023-05-15T14:31:44.446Z,22.08
2023-05-15T14:34:12.654Z,21.83
2023-05-15T14:36:47.200Z,21.97
2023-05-15T14:39:16.215Z,21.85
2023-05-15T14:41:44.931Z,21.61
2023-05-15T14:44:12.951Z,21.14
2023-05-15T14:46:43.284Z,21.15
2023-05-15T14:49:11.461Z,21.36
2023-05-15T14:51:40.246Z,21.15
2023-05-15T14:54:08.353Z,21.42
2023-05-15T14:56:37.268Z,21.60
2023-05-15T14:59:05.936Z,21.71
2023-05-15T15:01:43.951Z,21.53
2023-05-15T15:04:15.017Z,21.76
2023-05-15T15:06:44.604Z,21.88
2023-05-15T15:09:13.795Z,21.91
2023-05-15T15:11:44.924Z,22.01
2023-05-15T15:14:15.547Z,22.02
2023-05-15T15:16:44.613Z,22.56
2023-05-15T15:19:17.398Z,22.21
2023-05-15T15:21:47.445Z,21.98
2023-05-15T15:24:16.755Z,22.08
2023-05-15T15:26:45.153Z,21.87
2023-05-15T15:29:17.538Z,22.04
2023-05-15T15:31:46.641Z,22.18
2023-05-15T15:34:15.225Z,22.02
2023-05-15T15:36:44.241Z,21.88
2023-05-15T15:39:13.361Z,21.79
2023-05-15T15:41:41.878Z,21.57
2023-05-15T15:44:10.047Z,21.79
2023-05-15T15:46:38.219Z,21.87
2023-05-15T15:49:06.952Z,21.95
2023-05-15T15:51:36.617Z,22.41
2023-05-15T15:54:05.328Z,22.28
2023-05-15T15:56:33.953Z,22.92
2023-05-15T15:59:03.258Z,23.51
2023-05-15T16:01:33.364Z,23.12
2023-05-15T16:04:01.719Z,23.23
2023-05-15T16:06:30.123Z,23.67
2023-05-15T16:08:58.595Z,24.28
2023-05-15T16:11:26.921Z,25.18
2023-05-15T16:13:55.613Z,25.48
2023-05-15T16:16:24.759Z,25.51
2023-05-15T16:18:55.152Z,25.48
2023-05-15T16:21:24.529Z,24.98
2023-05-15T16:23:53.258Z,24.59
2023-05-15T16:26:21.771Z,24.83
2023-05-15T16:28:51.393Z,25.05
2023-05-15T16:31:21.603Z,24.92
2023-05-15T16:33:55.722Z,25.52
2023-05-15T16:36:24.272Z,26.86
2023-05-15T16:38:52.616Z,28.51
2023-05-15T16:41:21.973Z,30.43
2023-05-15T16:43:50.647Z,30.83
2023-05-15T16:46:20.227Z,32.39
2023-05-15T16:48:48.960Z,34.53
2023-05-15T16:51:17.452Z,34.86
2023-05-15T16:53:46.046Z,36.83
2023-05-15T16:56:14.491Z,37.48
2023-05-15T16:58:46.073Z,36.97
2023-05-15T17:01:14.728Z,37.17
2023-05-15T17:03:44.205Z,37.55
2023-05-15T17:06:12.487Z,37.95
2023-05-15T17:08:43.084Z,38.30
2023-05-15T17:11:12.120Z,39.16
2023-05-15T17:13:41.101Z,41.46
2023-05-15T17:16:09.473Z,43.43
2023-05-15T17:18:40.113Z,44.62
2023-05-15T17:21:08.115Z,45.78
2023-05-15T17:23:36.371Z,46.04
2023-05-15T17:26:04.637Z,46.53
2023-05-15T17:28:35.196Z,48.57
2023-05-15T17:31:12.792Z,47.99
2023-05-15T17:33:42.145Z,48.64
2023-05-15T17:36:10.917Z,49.51
2023-05-15T17:38:39.288Z,51.39
2023-05-15T17:41:07.954Z,52.53
2023-05-15T17:43:36.351Z,51.44
2023-05-15T17:46:06.032Z,49.04
2023-05-15T17:48:34.553Z,48.63
2023-05-15T17:51:02.660Z,49.52
2023-05-15T17:53:32.573Z,49.29
2023-05-15T17:56:01.455Z,49.58
2023-05-15T17:58:30.914Z,50.71
2023-05-15T18:00:59.617Z,50.60
2023-05-15T18:03:27.647Z,49.92
2023-05-15T18:05:56.134Z,50.32
2023-05-15T18:08:24.145Z,49.50
2023-05-15T18:10:52.344Z,50.04
2023-05-15T18:13:21.303Z,49.50
2023-05-15T18:15:49.656Z,49.39
2023-05-15T18:18:17.712Z,50.09
2023-05-15T18:20:46.386Z,50.26
2023-05-15T18:23:15.686Z,50.93
2023-05-15T18:25:44.071Z,52.22
2023-05-15T18:28:13.329Z,51.67
2023-05-15T18:30:42.592Z,50.55
2023-05-15T18:33:14.761Z,51.02
2023-05-15T18:35:43.185Z,50.88
2023-05-15T18:38:15.394Z,50.12
2023-05-15T18:40:46.930Z,49.95
2023-05-15T18:43:16.153Z,49.57
2023-05-15T18:45:44.295Z,49.35
2023-05-15T18:48:13.689Z,49.86
2023-05-15T18:50:42.150Z,49.64
2023-05-15T18:53:10.393Z,48.45
2023-05-15T18:55:39.773Z,48.23
2023-05-15T18:58:08.279Z,49.79
2023-05-15T19:00:38.996Z,49.49
2023-05-15T19:03:09.011Z,49.36
2023-05-15T19:05:38.388Z,48.30
2023-05-15T19:08:07.515Z,47.34
2023-05-15T19:10:38.699Z,47.72
2023-05-15T19:13:07.187Z,48.86
2023-05-15T19:15:35.534Z,50.11
2023-05-15T19:18:04.020Z,51.29
2023-05-15T19:20:32.829Z,50.86
2023-05-15T19:23:01.153Z,50.28
2023-05-15T19:25:29.773Z,50.47
2023-05-15T19:27:58.151Z,49.39
2023-05-15T19:30:26.791Z,49.10
2023-05-15T19:32:55.570Z,49.81
2023-05-15T19:35:24.712Z,51.44
2023-05-15T19:37:53.130Z,54.22
2023-05-15T19:40:21.791Z,55.57
2023-05-15T19:42:50.075Z,57.76
2023-05-15T19:45:18.336Z,58.73
2023-05-15T19:47:46.635Z,58.35
2023-05-15T19:50:15.276Z,55.73
2023-05-15T19:52:45.192Z,55.28
2023-05-15T19:55:17.088Z,55.82
2023-05-15T19:57:45.454Z,55.58
2023-05-15T20:00:14.457Z,54.86
2023-05-15T20:02:45.583Z,54.62
2023-05-15T20:05:15.681Z,54.41
2023-05-15T20:07:44.149Z,53.92
2023-05-15T20:10:12.610Z,53.52
2023-05-15T20:12:43.220Z,54.44
2023-05-15T20:15:14.798Z,54.24
2023-05-15T20:17:43.555Z,55.86
2023-05-15T20:20:12.591Z,57.66
2023-05-15T20:22:45.295Z,58.86
2023-05-15T20:25:15.705Z,60.33
2023-05-15T20:27:44.199Z,61.31
2023-05-15T20:30:12.621Z,61.90
2023-05-15T20:32:41.702Z,63.35
2023-05-15T20:35:11.268Z,63.19
2023-05-15T20:40:27.753Z,61.52
2023-05-15T20:42:57.473Z,60.10
2023-05-15T20:45:26.330Z,58.78
2023-05-15T20:47:56.451Z,58.48
2023-05-15T20:50:25.137Z,60.31
2023-05-15T20:52:53.884Z,60.33
2023-05-15T20:55:22.743Z,60.58
2023-05-15T20:57:51.232Z,60.00
2023-05-15T21:00:19.653Z,60.64
2023-05-15T21:02:48.189Z,62.29
2023-05-15T21:05:16.567Z,62.99
2023-05-15T21:07:45.115Z,64.49
2023-05-15T21:10:13.888Z,65.82
2023-05-15T21:12:43.175Z,66.47
2023-05-15T21:15:29.180Z,65.98
2023-05-15T21:17:57.521Z,66.04
2023-05-15T21:20:27.775Z,66.61
2023-05-15T21:22:56.129Z,67.32
2023-05-15T21:25:24.108Z,68.10
2023-05-15T21:27:52.372Z,67.61
2023-05-15T21:30:21.195Z,66.37
2023-05-15T21:32:49.429Z,65.58
2023-05-15T21:35:18.156Z,68.55
2023-05-15T21:37:46.727Z,70.77
2023-05-15T21:40:15.296Z,71.86
2023-05-15T21:42:44.022Z,72.17
2023-05-15T21:45:12.209Z,72.80
2023-05-15T21:47:41.498Z,73.14
2023-05-15T21:50:10.227Z,75.46
2023-05-15T21:52:40.523Z,78.95
2023-05-15T21:55:12.268Z,80.77
2023-05-15T21:57:40.845Z,81.80
2023-05-15T22:00:09.799Z,81.83
2023-05-15T22:02:39.268Z,79.33
2023-05-15T22:05:10.403Z,76.21
2023-05-15T22:07:39.282Z,73.49
2023-05-15T22:10:08.540Z,71.02
2023-05-15T22:12:38.183Z,68.45
2023-05-15T22:15:07.703Z,65.73
2023-05-15T22:17:37.388Z,63.74
2023-05-15T22:20:14.166Z,62.33
2023-05-15T22:22:42.874Z,60.58
2023-05-15T22:25:14.524Z,58.49
2023-05-15T22:27:43.022Z,57.59
2023-05-15T22:30:11.409Z,56.45
2023-05-15T22:32:41.451Z,54.93
2023-05-15T22:35:10.215Z,53.68
2023-05-15T22:37:41.166Z,52.45
2023-05-15T22:40:11.257Z,52.07
2023-05-15T22:42:41.784Z,51.95
2023-05-15T22:45:10.977Z,52.01
2023-05-15T22:47:56.697Z,51.96
2023-05-15T22:50:24.887Z,52.11
2023-05-15T22:52:53.911Z,56.50
2023-05-15T22:55:23.377Z,57.53
2023-05-15T22:57:51.568Z,58.43
2023-05-15T23:00:19.960Z,59.04
2023-05-15T23:02:48.617Z,59.00
2023-05-15T23:05:17.307Z,60.90
2023-05-15T23:07:45.545Z,62.31
2023-05-15T23:10:14.918Z,63.54
2023-05-15T23:12:43.600Z,64.51
2023-05-15T23:15:12.257Z,64.05
2023-05-15T23:17:40.713Z,63.72
2023-05-15T23:20:13.325Z,63.24
2023-05-15T23:22:41.801Z,62.93
2023-05-15T23:25:10.963Z,64.09
2023-05-15T23:27:41.993Z,65.04
2023-05-15T23:30:12.899Z,67.69
2023-05-15T23:32:41.164Z,72.23
2023-05-15T23:35:09.717Z,75.11
2023-05-15T23:37:38.525Z,75.55
2023-05-15T23:40:07.477Z,75.89
2023-05-15T23:42:35.897Z,74.38
2023-05-15T23:45:04.289Z,72.23
2023-05-15T23:47:32.709Z,71.81
2023-05-15T23:50:01.167Z,72.86
2023-05-15T23:52:29.758Z,74.30
2023-05-15T23:54:58.063Z,76.16
2023-05-15T23:57:26.361Z,77.39
2023-05-15T23:59:54.591Z,79.18
